Xherdan Comert

Olheiro-Chefe - Zurich
22 Fev 2028
Terça-feira
Processo

Personalidade

Adaptabilidade (15) Ambição (3) Controvérsia (20) Lealdade (13) Pressão (16) Profissionalismo (12) Espírito Esportivo (8) Temperamento (11)

Perfil

Estilo de Treinamento Democrático
Licença Nacional A
Determinação 6
Gestão de Pessoas 12
Motivação 12
Disciplina 12
Satisfação no Trabalho
100%
Fadiga
0%
Função Olheiro-Chefe
Salário 68.0K p/s
Contrato 14.03.2029

Desempenho

Comportamento Bom
Eficácia do Treinamento
44%
Desenvolvimento do Jogador
35%
Prevenção de Lesões
25%
Implementação Tática
40%

Eventos Recentes

Participou de uma reunião de recrutamento agora
Recomendou um alvo de transferência agora
Recomendou um alvo de transferência agora
Participou de uma reunião de recrutamento 7d atrás
Recomendou um alvo de transferência 7d atrás
Recomendou um alvo de transferência 7d atrás
Recomendou um alvo de transferência 7d atrás
Recomendou um alvo de transferência 7d atrás

Monitorando agora

84
Jogador Clube Status Habilidade Confiança Observado Última observação Último voto
Josh Nichols Tranmere Rovers Ativo 119 / 119 40% 1 11.01.2028 -
Tomás Aranda Boca Juniors Ativo 103 / 127 40% 1 11.01.2028 -
Mao Hosoya Everton Negociando 134 / 135 90% 1 01.01.2028 Aprovar
Sadiq Auwal Niger Tornadoes Ativo 78 / 90 40% 1 30.08.2027 -
Alex Amaefula Kun Khalifat Ativo 78 / 90 40% 1 30.08.2027 -
Araphat Mohammed Berekum Chelsea Ativo 103 / 111 40% 1 12.07.2027 -
Leo Castledine Middlesbrough Ativo 138 / 137 40% 1 11.07.2027 -
Rilind Nivokazi Sion Ativo 113 / 122 58% 1 14.06.2027 Aprovar
Facundo Torres LOSC Lille Ativo 134 / 134 67% 1 01.06.2027 Aprovar
Nicolò Zaniolo Udinese Ativo 139 / 138 40% 1 31.05.2027 -
Nikola Vlašić Torino Ativo 144 / 149 40% 2 30.05.2027 -
Tom Cannon Sheffield United Ativo 128 / 130 40% 4 29.05.2027 -
Aune Heggebø West Bromwich Albion Ativo 124 / 124 40% 1 29.05.2027 -
Zian Flemming Ipswich Town Ativo 137 / 134 40% 4 27.05.2027 -
Luis Vázquez Birmingham Ativo 122 / 135 40% 3 25.05.2027 -
Younes Ebnoutalib Eintracht Frankfurt Ativo 139 / 137 40% 2 20.05.2027 -
Noah Okafor Leeds United Ativo 133 / 139 40% 2 16.05.2027 -
Santiago Pierotti Lecce Ativo 130 / 136 40% 1 14.05.2027 -
Morgan Whittaker Middlesbrough Ativo 137 / 136 40% 2 12.05.2027 -
Wilson Isidor Sunderland Ativo 132 / 133 40% 3 11.05.2027 -
Patson Daka Leicester City Ativo 126 / 128 40% 3 08.05.2027 -
Elijah Adebayo Luton Town Ativo 116 / 125 40% 2 08.05.2027 -
Rhian Brewster Oxford United Ativo 127 / 125 40% 1 04.05.2027 -
Tommy Conway Middlesbrough Ativo 129 / 133 40% 1 01.05.2027 -
Jens Odgaard Bologna Ativo 145 / 132 40% 2 29.04.2027 -
Yousef Salech Cardiff City Ativo 130 / 132 40% 2 29.04.2027 -
Richard Koné Queens Park Rangers Ativo 133 / 123 40% 1 24.04.2027 -
Tyrese Campbell Sheffield United Ativo 124 / 131 40% 2 23.04.2027 -
Brian Brobbey Sunderland Ativo 149 / 148 40% 1 12.04.2027 -
Gonzalo Fulham Ativo 154 / 153 40% 1 05.04.2027 -
Amine Adli Bournemouth Ativo 154 / 141 40% 1 26.01.2027 -
Harry Wilson Leeds United Ativo 137 / 145 40% 1 25.01.2027 -
Gabriele Mulazzi Sion Ativo 97 / 98 58% 1 18.01.2027 -
Marvin Keller Bayer Leverkusen Ativo 136 / 137 67% 1 01.01.2027 Aprovar
Stanislav Agkatsev Sunderland Ativo 132 / 133 66% 1 01.01.2027 Aprovar
Quinten Timber Crystal Palace Ativo 141 / 155 40% 2 29.12.2026 -
Max Bird Birmingham Ativo 127 / 130 40% 1 29.12.2026 -
Williams Manyama SuperSport United Ativo 115 / 121 40% 2 28.12.2026 -
Chris Mepham West Bromwich Albion Ativo 123 / 133 40% 1 28.12.2026 -
Rubén Duarte Legia Ativo 145 / 120 40% 2 27.12.2026 -
Jacques Ekomié Wrexham Ativo 120 / 126 40% 1 26.12.2026 -
Xaver Schlager Nottingham Forest Ativo 148 / 157 40% 1 26.12.2026 -
Manfred Ugalde Spartak Moscow Ativo 142 / 126 40% 1 26.12.2026 -
Sota Kitano Luzern Ativo 115 / 127 40% 1 26.12.2026 -
Mads Pedersen FC Augsburg Ativo 114 / 119 40% 4 24.12.2026 -
Aaron Hickey Brentford Ativo 139 / 147 40% 1 24.12.2026 -
Benjamin White Arsenal Ativo 159 / 154 40% 1 23.12.2026 -
Zeki Amdouni Burnley Ativo 141 / 135 40% 1 22.12.2026 -
Adrien Truffert Bournemouth Ativo 151 / 155 40% 1 18.12.2026 -
Dara O'Shea Ipswich Town Ativo 136 / 140 40% 1 18.12.2026 -
Saša Lukić Ipswich Town Ativo 134 / 142 40% 1 16.12.2026 -
Callum O'Hare Sheffield United Ativo 139 / 134 40% 1 13.12.2026 -
Adam Wharton Crystal Palace Ativo 160 / 156 40% 1 13.12.2026 -
Antonios Papadopoulos Lugano Ativo 119 / 123 40% 1 13.12.2026 -
Arjan Malić Sturm Graz Ativo 128 / 126 40% 2 12.12.2026 -
Mandla Erasmus SuperSport United Ativo 105 / 114 40% 2 09.12.2026 -
Alessandro Buongiorno Sassuolo Ativo 165 / 156 40% 1 09.12.2026 -
Joe Gelhardt Hull City Ativo 134 / 129 40% 1 08.12.2026 -
Lorent Tolaj Plymouth Argyle Ativo 112 / 113 40% 1 07.12.2026 -
Tim Drexler Red Bull Salzburg Ativo 109 / 127 40% 3 04.12.2026 -
Johannes Handl Austria Wien Ativo 112 / 115 40% 2 03.12.2026 -
Ibrahim Sangaré Nottingham Forest Ativo 139 / 146 40% 1 03.12.2026 -
Kenny Tete Fulham Ativo 141 / 135 40% 1 02.12.2026 -
Alessio Romagnoli Lazio Ativo 158 / 153 40% 1 29.11.2026 -
Christian Krasnodar Ativo 123 / 126 40% 2 28.11.2026 -
Serge-Philippe Raux-Yao Rapid Wien Ativo 137 / 120 40% 1 28.11.2026 -
Marlon Gomes Shakhtar Ativo 118 / 141 40% 1 27.11.2026 -
Lukáš Červ Viktoria Plzen Ativo 135 / 143 40% 1 26.11.2026 -
Joseph Aidoo Crvena Zvezda Ativo 143 / 131 40% 1 24.11.2026 -
Jannes Horn Rapid Wien Ativo 115 / 123 40% 2 23.11.2026 -
Uran Bislimi Lugano Ativo 121 / 115 40% 1 22.11.2026 -
Armin Gigović Young Boys Ativo 121 / 118 40% 1 22.11.2026 -
Philip Billing FC Midtjylland Ativo 136 / 146 40% 1 21.11.2026 -
Cédric Zesiger Young Boys Ativo 125 / 132 40% 1 21.11.2026 -
Hernán de la Fuente Instituto Ativo 127 / 120 40% 1 20.11.2026 -
Pius Dorn Luzern Ativo 114 / 121 40% 1 20.11.2026 -
Nicolas Wimmer Wolfsberger AC Ativo 109 / 119 40% 1 17.11.2026 -
César Ibáñez Huracán Ativo 119 / 127 40% 1 17.11.2026 -
Conrad Wallem Austria Wien Ativo 131 / 128 40% 2 08.10.2026 -
Pablo Ruiz Real Salt Lake Ativo 121 / 126 40% 1 08.10.2026 -
Ange Ahoussou Rapid Wien Ativo 118 / 119 40% 1 07.10.2026 -
Aubrey Modiba Mamelodi Sundowns Ativo 122 / 120 40% 1 07.10.2026 -
Aiden O'Neill New York City Ativo 126 / 123 40% 1 06.10.2026 -
Franck Surdez Sion Ativo 119 / 113 58% 1 17.08.2026 -